createdAt,value
2022-08-02T00:00:59.972Z,22.01
2022-08-02T00:03:27.576Z,21.88
2022-08-02T00:05:57.123Z,21.81
2022-08-02T00:08:24.781Z,21.89
2022-08-02T00:10:52.958Z,21.66
2022-08-02T00:13:20.731Z,21.63
2022-08-02T00:15:48.471Z,21.81
2022-08-02T00:18:16.119Z,21.91
2022-08-02T00:20:44.139Z,21.71
2022-08-02T00:23:14.356Z,21.67
2022-08-02T00:25:55.042Z,21.46
2022-08-02T00:28:27.833Z,21.39
2022-08-02T00:30:56.157Z,21.57
2022-08-02T00:34:09.102Z,21.46
2022-08-02T00:36:12.058Z,21.43
2022-08-02T00:38:41.397Z,21.25
2022-08-02T00:41:12.872Z,21.33
2022-08-02T00:43:40.569Z,21.30
2022-08-02T00:46:08.558Z,21.35
2022-08-02T00:48:41.440Z,21.23
2022-08-02T00:51:11.166Z,21.26
2022-08-02T00:53:38.917Z,20.93
2022-08-02T00:56:10.969Z,21.16
2022-08-02T00:58:38.824Z,21.39
2022-08-02T01:01:06.654Z,21.01
2022-08-02T01:03:34.347Z,21.10
2022-08-02T01:06:17.188Z,21.21
2022-08-02T01:08:45.004Z,21.13
2022-08-02T01:11:13.970Z,21.14
2022-08-02T01:13:41.883Z,21.20
2022-08-02T01:16:18.175Z,21.01
2022-08-02T01:18:47.284Z,20.88
2022-08-02T01:21:22.185Z,20.74
2022-08-02T01:23:54.528Z,21.08
2022-08-02T01:26:30.585Z,20.93
2022-08-02T01:29:00.655Z,21.12
2022-08-02T01:31:28.642Z,21.43
2022-08-02T01:33:58.473Z,21.21
2022-08-02T01:36:27.395Z,21.06
2022-08-02T01:38:55.114Z,21.16
2022-08-02T01:41:26.009Z,21.24
2022-08-02T01:43:55.596Z,21.13
2022-08-02T01:46:25.026Z,21.17
2022-08-02T01:48:52.766Z,21.14
2022-08-02T01:51:40.783Z,21.29
2022-08-02T01:54:08.683Z,20.82
2022-08-02T01:56:36.753Z,20.72
2022-08-02T01:59:04.829Z,21.15
2022-08-02T02:01:35.286Z,21.52
2022-08-02T02:04:02.952Z,21.45
2022-08-02T02:06:30.678Z,21.13
2022-08-02T02:09:01.449Z,20.67
2022-08-02T02:12:14.188Z,20.60
2022-08-02T02:14:16.848Z,20.74
2022-08-02T02:16:46.580Z,21.00
2022-08-02T02:19:21.350Z,20.93
2022-08-02T02:21:50.814Z,21.07
2022-08-02T02:24:18.520Z,21.02
2022-08-02T02:26:52.254Z,21.58
2022-08-02T02:29:26.818Z,21.83
2022-08-02T02:31:56.367Z,21.25
2022-08-02T02:34:26.545Z,21.72
2022-08-02T02:36:54.229Z,21.39
2022-08-02T02:39:22.479Z,21.26
2022-08-02T02:41:50.201Z,20.99
2022-08-02T02:44:35.734Z,21.02
2022-08-02T02:47:05.465Z,21.30
2022-08-02T02:49:34.033Z,21.04
2022-08-02T02:52:02.935Z,21.15
2022-08-02T02:54:34.896Z,21.22
2022-08-02T02:57:06.016Z,21.02
2022-08-02T02:59:48.914Z,21.20
2022-08-02T03:02:18.798Z,21.13
2022-08-02T03:04:55.741Z,19.23
2022-08-02T03:07:24.452Z,20.70
2022-08-02T03:09:53.813Z,20.61
2022-08-02T03:12:24.847Z,20.66
2022-08-02T03:14:55.309Z,20.83
2022-08-02T03:17:24.907Z,20.77
2022-08-02T03:19:52.499Z,21.03
2022-08-02T03:22:20.441Z,20.36
2022-08-02T03:24:48.490Z,20.37
2022-08-02T03:27:16.405Z,20.58
2022-08-02T03:29:44.322Z,20.11
2022-08-02T03:32:12.304Z,20.15
2022-08-02T03:34:43.792Z,20.09
2022-08-02T03:37:11.948Z,20.28
2022-08-02T03:39:51.114Z,20.64
2022-08-02T03:42:21.293Z,21.20
2022-08-02T03:44:49.546Z,21.07
2022-08-02T03:47:17.650Z,21.55
2022-08-02T03:49:47.071Z,20.89
2022-08-02T03:52:16.928Z,20.46
2022-08-02T03:54:45.999Z,20.87
2022-08-02T03:57:13.994Z,20.87
2022-08-02T03:59:42.160Z,21.17
2022-08-02T04:02:18.937Z,20.98
2022-08-02T04:04:48.477Z,21.42
2022-08-02T04:07:18.531Z,21.20
2022-08-02T04:10:04.840Z,21.06
2022-08-02T04:12:34.475Z,21.70
2022-08-02T04:15:02.246Z,21.48
2022-08-02T04:17:32.453Z,21.31
2022-08-02T04:20:02.816Z,21.20
2022-08-02T04:22:32.084Z,21.43
2022-08-02T04:25:00.524Z,22.37
2022-08-02T04:27:50.814Z,23.68
2022-08-02T04:30:17.158Z,23.96
2022-08-02T04:32:46.835Z,24.04
2022-08-02T04:35:20.367Z,23.85
2022-08-02T04:38:09.860Z,23.67
2022-08-02T04:40:36.790Z,22.17
2022-08-02T04:43:04.828Z,22.61
2022-08-02T04:45:32.962Z,22.14
2022-08-02T04:48:07.659Z,22.16
2022-08-02T04:50:43.061Z,21.80
2022-08-02T04:53:11.123Z,21.51
2022-08-02T04:55:38.808Z,21.85
2022-08-02T04:58:23.836Z,22.23
2022-08-02T05:00:54.481Z,21.68
2022-08-02T05:03:22.257Z,21.53
2022-08-02T05:05:51.327Z,20.07
2022-08-02T05:08:19.023Z,21.97
2022-08-02T05:10:47.043Z,22.43
2022-08-02T05:13:15.012Z,22.85
2022-08-02T05:15:43.070Z,22.17
2022-08-02T05:18:10.816Z,22.22
2022-08-02T05:20:39.601Z,21.48
2022-08-02T05:23:09.250Z,21.72
2022-08-02T05:25:39.564Z,21.95
2022-08-02T05:28:11.299Z,22.23
2022-08-02T05:30:39.432Z,22.69
2022-08-02T05:33:08.774Z,22.51
2022-08-02T05:35:36.548Z,22.19
2022-08-02T05:38:04.752Z,22.85
2022-08-02T05:40:54.292Z,22.66
2022-08-02T05:43:24.256Z,22.45
2022-08-02T05:45:53.610Z,22.21
2022-08-02T05:48:24.491Z,22.33
2022-08-02T05:50:58.337Z,22.64
2022-08-02T05:53:32.126Z,22.67
2022-08-02T05:56:11.578Z,23.32
2022-08-02T05:58:43.056Z,23.62
2022-08-02T06:01:11.358Z,23.68
2022-08-02T06:03:43.390Z,23.68
2022-08-02T06:06:17.932Z,24.31
2022-08-02T06:08:47.958Z,24.34
2022-08-02T06:11:18.422Z,24.28
2022-08-02T06:13:49.093Z,24.68
2022-08-02T06:16:18.092Z,24.73
2022-08-02T06:19:03.153Z,24.53
2022-08-02T06:22:31.690Z,24.30
2022-08-02T06:24:19.746Z,24.34
2022-08-02T06:26:52.616Z,24.12
2022-08-02T06:29:20.902Z,24.48
2022-08-02T06:31:53.737Z,24.35
2022-08-02T06:34:21.705Z,24.93
2022-08-02T06:36:51.228Z,25.03
2022-08-02T06:39:23.437Z,24.84
2022-08-02T06:41:53.097Z,24.64
2022-08-02T06:44:45.544Z,24.46
2022-08-02T06:47:11.822Z,24.60
2022-08-02T06:49:51.893Z,24.70
2022-08-02T06:52:27.071Z,24.45
2022-08-02T06:54:56.393Z,25.02
2022-08-02T06:57:25.342Z,25.32
2022-08-02T06:59:57.006Z,24.78
2022-08-02T07:02:24.799Z,25.32
2022-08-02T07:04:53.485Z,25.09
2022-08-02T07:07:21.389Z,25.32
2022-08-02T07:09:56.764Z,25.36
2022-08-02T07:12:33.897Z,25.56
2022-08-02T07:15:03.543Z,25.37
2022-08-02T07:17:32.042Z,25.10
2022-08-02T07:19:59.993Z,24.78
2022-08-02T07:22:28.389Z,24.75
2022-08-02T07:24:56.674Z,25.28
2022-08-02T07:27:27.823Z,25.83
2022-08-02T07:29:57.886Z,25.71
2022-08-02T07:32:26.498Z,25.63
2022-08-02T07:34:58.034Z,25.85
2022-08-02T07:37:53.387Z,26.08
2022-08-02T07:40:19.948Z,26.32
2022-08-02T07:42:49.448Z,26.72
2022-08-02T07:45:18.753Z,26.38
2022-08-02T07:47:49.417Z,25.93
2022-08-02T07:50:18.268Z,26.07
2022-08-02T07:52:46.366Z,26.52
2022-08-02T07:55:14.823Z,26.45
2022-08-02T07:57:46.395Z,25.74
2022-08-02T08:00:16.791Z,26.13
2022-08-02T08:02:46.393Z,26.13
2022-08-02T08:05:14.272Z,25.43
2022-08-02T08:07:41.972Z,24.96
2022-08-02T08:10:10.445Z,24.50
2022-08-02T08:12:43.120Z,25.72
2022-08-02T08:15:17.897Z,25.05
2022-08-02T08:17:48.153Z,25.96
2022-08-02T08:20:16.377Z,25.98
2022-08-02T08:22:47.473Z,26.23
2022-08-02T08:25:15.273Z,26.36
2022-08-02T08:27:54.099Z,25.27
2022-08-02T08:30:22.571Z,26.14
2022-08-02T08:32:51.750Z,26.44
2022-08-02T08:35:19.661Z,27.07
2022-08-02T08:37:47.613Z,26.31
2022-08-02T08:40:19.423Z,26.12
2022-08-02T08:42:47.787Z,26.27
2022-08-02T08:45:18.019Z,25.73
2022-08-02T08:47:46.170Z,25.56
2022-08-02T08:50:24.537Z,26.32
2022-08-02T08:52:54.726Z,26.30
2022-08-02T08:55:26.674Z,25.81
2022-08-02T08:57:58.713Z,25.91
2022-08-02T09:00:27.352Z,25.84
2022-08-02T09:02:57.451Z,26.54
2022-08-02T09:05:26.594Z,26.65
2022-08-02T09:07:54.443Z,26.72
2022-08-02T09:10:38.703Z,26.91
2022-08-02T09:13:37.765Z,26.33
2022-08-02T09:16:12.138Z,26.65
2022-08-02T09:18:45.723Z,26.95
2022-08-02T09:21:17.927Z,27.08
2022-08-02T09:23:46.273Z,27.06
2022-08-02T09:26:15.726Z,26.68
2022-08-02T09:28:44.866Z,27.30
2022-08-02T09:31:16.298Z,27.65
2022-08-02T09:33:46.952Z,26.90
2022-08-02T09:36:17.129Z,26.58
2022-08-02T09:38:56.566Z,27.23
2022-08-02T09:41:28.217Z,27.26
2022-08-02T09:44:05.334Z,27.36
2022-08-02T09:46:38.281Z,27.23
2022-08-02T09:49:08.568Z,27.48
2022-08-02T09:51:39.298Z,27.88
2022-08-02T09:54:09.322Z,27.37
2022-08-02T09:56:44.565Z,26.89
2022-08-02T09:59:13.000Z,27.60
2022-08-02T10:01:50.406Z,27.33
2022-08-02T10:04:21.872Z,26.91
2022-08-02T10:06:55.218Z,26.72
2022-08-02T10:09:23.012Z,26.59
2022-08-02T10:11:51.169Z,26.82
2022-08-02T10:14:22.910Z,27.50
2022-08-02T10:16:50.635Z,26.63
2022-08-02T10:19:38.770Z,28.46
2022-08-02T10:22:13.557Z,28.17
2022-08-02T10:24:48.463Z,27.79
2022-08-02T10:27:17.033Z,27.09
2022-08-02T10:29:53.706Z,27.12
2022-08-02T10:32:23.676Z,27.15
2022-08-02T10:34:57.592Z,27.22
2022-08-02T10:37:33.021Z,27.50
2022-08-02T10:40:02.466Z,27.19
2022-08-02T10:42:46.949Z,27.15
2022-08-02T10:45:21.063Z,27.84
2022-08-02T10:48:07.223Z,27.70
2022-08-02T10:50:55.067Z,27.68
2022-08-02T10:53:28.059Z,27.72
2022-08-02T10:55:56.953Z,27.87
2022-08-02T10:58:29.685Z,28.04
2022-08-02T11:00:59.197Z,27.71
2022-08-02T11:03:40.093Z,27.79
2022-08-02T11:06:08.701Z,27.81
2022-08-02T11:08:42.171Z,28.00
2022-08-02T11:11:20.331Z,28.39
2022-08-02T11:14:10.938Z,28.56
2022-08-02T11:17:02.740Z,29.21
2022-08-02T11:19:30.774Z,29.17
2022-08-02T11:22:11.677Z,29.39
2022-08-02T11:24:41.506Z,29.20
2022-08-02T11:27:10.372Z,28.35
2022-08-02T11:29:39.396Z,26.63
2022-08-02T11:32:07.978Z,28.40
2022-08-02T11:34:37.697Z,28.02
2022-08-02T11:37:08.386Z,28.29
2022-08-02T11:39:37.249Z,28.63
2022-08-02T11:42:06.788Z,29.74
2022-08-02T11:44:41.220Z,30.37
2022-08-02T11:47:14.168Z,29.21
2022-08-02T11:49:43.078Z,31.35
2022-08-02T11:52:12.248Z,31.71
2022-08-02T11:54:42.436Z,31.56
2022-08-02T11:57:27.603Z,30.96
2022-08-02T11:59:55.927Z,30.97
2022-08-02T12:02:27.145Z,31.46
2022-08-02T12:04:58.671Z,31.83
2022-08-02T12:07:34.849Z,32.13
2022-08-02T12:10:05.649Z,32.03
2022-08-02T12:12:37.748Z,32.72
2022-08-02T12:15:06.026Z,32.10
2022-08-02T12:18:00.169Z,32.49
2022-08-02T12:20:37.117Z,32.27
2022-08-02T12:23:06.075Z,31.92
2022-08-02T12:25:36.283Z,31.57
2022-08-02T12:28:22.520Z,32.04
2022-08-02T12:30:52.930Z,31.42
2022-08-02T12:33:21.987Z,30.31
2022-08-02T12:35:52.847Z,30.38
2022-08-02T12:38:23.190Z,30.76
2022-08-02T12:40:51.052Z,26.96
2022-08-02T12:43:21.357Z,30.53
2022-08-02T12:45:51.337Z,30.25
2022-08-02T12:48:36.744Z,30.24
2022-08-02T12:51:20.491Z,29.96
2022-08-02T12:53:59.647Z,30.02
2022-08-02T12:56:28.952Z,30.09
2022-08-02T12:58:58.235Z,30.35
2022-08-02T13:01:27.105Z,30.60
2022-08-02T13:04:09.898Z,30.51
2022-08-02T13:06:44.526Z,29.95
2022-08-02T13:09:14.240Z,29.75
2022-08-02T13:11:44.286Z,29.90
2022-08-02T13:14:14.820Z,30.64
2022-08-02T13:16:43.108Z,30.73
2022-08-02T13:19:15.901Z,31.38
2022-08-02T13:22:01.965Z,31.41
2022-08-02T13:24:40.843Z,31.61
2022-08-02T13:27:23.502Z,31.19
2022-08-02T13:29:54.165Z,31.87
2022-08-02T13:32:24.847Z,31.91
2022-08-02T13:34:52.575Z,32.54
2022-08-02T13:37:20.407Z,32.98
2022-08-02T13:40:18.839Z,32.65
2022-08-02T13:42:39.953Z,31.71
2022-08-02T13:45:12.945Z,32.89
2022-08-02T13:48:04.150Z,33.45
2022-08-02T13:50:30.338Z,33.22
2022-08-02T13:52:58.635Z,32.88
2022-08-02T13:55:29.294Z,32.93
2022-08-02T13:57:56.992Z,33.60
2022-08-02T14:00:35.589Z,33.91
2022-08-02T14:03:07.839Z,33.15
2022-08-02T14:05:47.804Z,34.30
2022-08-02T14:08:17.500Z,33.74
2022-08-02T14:10:46.847Z,33.53
2022-08-02T14:13:14.678Z,34.16
2022-08-02T14:15:44.160Z,32.51
2022-08-02T14:18:14.782Z,32.50
2022-08-02T14:20:49.828Z,32.38
2022-08-02T14:23:46.887Z,32.18
2022-08-02T14:26:14.181Z,32.25
2022-08-02T14:28:54.632Z,32.88
2022-08-02T14:31:23.962Z,33.25
2022-08-02T14:33:52.265Z,32.71
2022-08-02T14:36:27.590Z,33.90
2022-08-02T14:38:55.785Z,34.42
2022-08-02T14:41:23.780Z,34.54
2022-08-02T14:44:10.612Z,33.92
2022-08-02T14:46:43.490Z,33.89
2022-08-02T14:49:14.238Z,34.57
2022-08-02T14:51:47.774Z,32.79
2022-08-02T14:54:18.369Z,33.02
2022-08-02T14:56:48.309Z,33.08
2022-08-02T14:59:16.540Z,32.94
2022-08-02T15:01:50.491Z,32.36
2022-08-02T15:04:18.640Z,32.79
2022-08-02T15:06:46.333Z,32.47
2022-08-02T15:09:14.560Z,32.56
2022-08-02T15:11:47.137Z,32.50
2022-08-02T15:14:18.466Z,33.42
2022-08-02T15:16:56.999Z,33.72
2022-08-02T15:19:28.699Z,33.60
2022-08-02T15:22:16.248Z,34.14
2022-08-02T15:24:44.873Z,34.26
2022-08-02T15:27:15.484Z,33.59
2022-08-02T15:29:43.465Z,34.07
2022-08-02T15:32:13.411Z,33.64
2022-08-02T15:34:41.465Z,33.42
2022-08-02T15:37:09.205Z,33.10
2022-08-02T15:39:36.978Z,33.00
2022-08-02T15:42:04.796Z,32.57
2022-08-02T15:44:32.449Z,33.30
2022-08-02T15:47:00.105Z,33.42
2022-08-02T15:49:29.194Z,33.90
2022-08-02T15:51:56.965Z,33.44
2022-08-02T15:54:24.620Z,33.83
2022-08-02T15:56:52.273Z,33.79
2022-08-02T15:59:19.934Z,33.42
2022-08-02T16:01:48.605Z,33.54
2022-08-02T16:04:19.128Z,31.16
2022-08-02T16:06:53.009Z,30.22
2022-08-02T16:09:25.500Z,31.36
2022-08-02T16:11:53.218Z,31.98
2022-08-02T16:14:24.381Z,31.89
2022-08-02T16:16:52.172Z,32.42
2022-08-02T16:19:47.516Z,31.87
2022-08-02T16:22:11.214Z,32.21
2022-08-02T16:24:39.213Z,31.90
2022-08-02T16:27:08.362Z,31.81
2022-08-02T16:29:37.422Z,31.75
2022-08-02T16:32:08.121Z,31.67
2022-08-02T16:35:04.038Z,31.56
2022-08-02T16:37:27.437Z,31.57
2022-08-02T16:40:17.397Z,31.73
2022-08-02T16:42:48.823Z,31.98
2022-08-02T16:45:20.705Z,31.65
2022-08-02T16:47:56.518Z,31.41
2022-08-02T16:50:29.221Z,31.40
2022-08-02T16:53:07.287Z,32.09
2022-08-02T16:55:35.322Z,32.06
2022-08-02T16:58:03.148Z,32.34
2022-08-02T17:00:30.767Z,32.09
2022-08-02T17:02:59.265Z,32.21
2022-08-02T17:05:37.678Z,31.53
2022-08-02T17:08:16.937Z,31.33
2022-08-02T17:10:48.461Z,31.48
2022-08-02T17:13:19.533Z,31.40
2022-08-02T17:16:17.434Z,31.18
2022-08-02T17:18:42.475Z,30.79
2022-08-02T17:21:28.048Z,30.87
2022-08-02T17:24:06.194Z,31.20
2022-08-02T17:26:35.770Z,31.50
2022-08-02T17:32:05.281Z,30.87
2022-08-02T17:34:33.639Z,30.67
2022-08-02T17:37:01.991Z,30.58
2022-08-02T17:39:43.838Z,30.57
2022-08-02T17:42:19.796Z,30.55
2022-08-02T17:44:49.266Z,30.49
2022-08-02T17:47:19.238Z,30.40
2022-08-02T17:49:49.707Z,30.52
2022-08-02T17:52:51.654Z,30.56
2022-08-02T17:55:10.800Z,30.73
2022-08-02T17:57:55.535Z,30.57
2022-08-02T18:00:26.842Z,30.58
2022-08-02T18:02:55.501Z,30.68
2022-08-02T18:05:24.055Z,30.52
2022-08-02T18:08:07.587Z,30.47
2022-08-02T18:10:37.693Z,30.36
2022-08-02T18:13:06.648Z,30.16
2022-08-02T18:15:37.281Z,29.88
2022-08-02T18:18:05.040Z,29.82
2022-08-02T18:20:33.846Z,29.68
2022-08-02T18:23:01.449Z,29.75
2022-08-02T18:25:36.989Z,29.82
2022-08-02T18:28:13.170Z,29.91
2022-08-02T18:30:40.946Z,29.94
2022-08-02T18:34:00.017Z,29.93
2022-08-02T18:35:58.229Z,30.03
2022-08-02T18:38:27.013Z,30.14
2022-08-02T18:40:55.717Z,30.10
2022-08-02T18:43:29.574Z,29.92
2022-08-02T18:46:07.291Z,29.74
2022-08-02T18:48:47.041Z,29.61
2022-08-02T18:51:19.703Z,29.32
2022-08-02T18:53:51.686Z,29.20
2022-08-02T18:56:24.739Z,29.18
2022-08-02T18:58:57.732Z,29.16
2022-08-02T19:01:33.404Z,29.12
2022-08-02T19:04:04.239Z,29.17
2022-08-02T19:06:35.258Z,29.17
2022-08-02T19:09:11.553Z,29.15
2022-08-02T19:11:48.263Z,29.24
2022-08-02T19:14:27.512Z,29.22
2022-08-02T19:16:56.501Z,29.21
2022-08-02T19:19:28.954Z,29.28
2022-08-02T19:22:16.745Z,29.14
2022-08-02T19:24:45.856Z,28.98
2022-08-02T19:27:14.645Z,28.99
2022-08-02T19:29:49.100Z,28.96
2022-08-02T19:32:40.041Z,28.92
2022-08-02T19:35:28.279Z,28.81
2022-08-02T19:37:58.887Z,28.79
2022-08-02T19:40:28.791Z,28.81
2022-08-02T19:44:24.048Z,28.77
2022-08-02T19:45:50.295Z,28.80
2022-08-02T19:48:24.447Z,28.62
2022-08-02T19:51:08.297Z,28.72
2022-08-02T19:53:48.422Z,28.66
2022-08-02T19:56:21.550Z,28.64
2022-08-02T19:58:54.305Z,28.47
2022-08-02T20:01:37.043Z,28.42
2022-08-02T20:04:07.568Z,28.48
2022-08-02T20:06:42.791Z,28.07
2022-08-02T20:09:13.633Z,28.01
2022-08-02T20:11:54.334Z,28.09
2022-08-02T20:14:27.334Z,28.08
2022-08-02T20:16:57.197Z,27.95
2022-08-02T20:19:25.139Z,27.31
2022-08-02T20:22:00.096Z,27.78
2022-08-02T20:24:29.869Z,27.73
2022-08-02T20:26:58.862Z,27.14
2022-08-02T20:29:44.050Z,27.17
2022-08-02T20:32:22.474Z,27.29
2022-08-02T20:34:50.987Z,27.49
2022-08-02T20:38:01.473Z,27.54
2022-08-02T20:40:09.425Z,27.63
2022-08-02T20:42:37.525Z,27.42
2022-08-02T20:45:07.749Z,27.05
2022-08-02T20:47:39.341Z,27.34
2022-08-02T20:50:31.866Z,27.51
2022-08-02T20:53:00.035Z,27.39
2022-08-02T20:55:34.182Z,27.14
2022-08-02T20:58:02.756Z,26.88
2022-08-02T21:00:31.696Z,26.42
2022-08-02T21:03:01.073Z,26.00
2022-08-02T21:05:54.279Z,26.59
2022-08-02T21:08:21.268Z,26.38
2022-08-02T21:10:52.182Z,26.51
2022-08-02T21:13:27.966Z,26.37
2022-08-02T21:16:00.118Z,26.36
2022-08-02T21:18:39.076Z,26.26
2022-08-02T21:21:11.371Z,26.54
2022-08-02T21:23:45.035Z,26.31
2022-08-02T21:26:25.766Z,26.42
2022-08-02T21:28:56.561Z,26.55
2022-08-02T21:31:29.833Z,26.72
2022-08-02T21:34:01.366Z,26.56
2022-08-02T21:36:31.354Z,25.91
2022-08-02T21:39:00.279Z,25.43
2022-08-02T21:41:38.476Z,25.27
2022-08-02T21:44:13.663Z,25.50
2022-08-02T21:46:44.517Z,25.28
2022-08-02T21:49:14.372Z,25.26
2022-08-02T21:51:42.729Z,25.52
2022-08-02T21:54:17.876Z,25.47
2022-08-02T21:56:51.890Z,25.30
2022-08-02T21:59:25.639Z,25.39
2022-08-02T22:01:54.750Z,25.72
2022-08-02T22:04:29.132Z,25.38
2022-08-02T22:06:57.669Z,25.76
2022-08-02T22:09:43.601Z,25.24
2022-08-02T22:12:17.682Z,25.51
2022-08-02T22:14:49.518Z,25.03
2022-08-02T22:17:30.468Z,25.44
2022-08-02T22:20:12.794Z,25.66
2022-08-02T22:22:41.422Z,25.38
2022-08-02T22:25:27.212Z,25.16
2022-08-02T22:28:34.700Z,24.99
2022-08-02T22:30:51.135Z,24.78
2022-08-02T22:33:38.255Z,24.96
2022-08-02T22:36:12.045Z,25.13
2022-08-02T22:38:44.614Z,24.98
2022-08-02T22:41:13.904Z,25.17
2022-08-02T22:43:41.796Z,25.63
2022-08-02T22:46:15.630Z,25.53
2022-08-02T22:48:44.773Z,25.44
2022-08-02T22:51:15.668Z,25.47
2022-08-02T22:53:43.731Z,25.56
2022-08-02T22:56:11.510Z,25.56
2022-08-02T22:58:50.344Z,31.56
2022-08-02T22:59:12.191Z,25.70
2022-08-02T23:01:27.268Z,25.70
2022-08-02T23:03:54.995Z,25.59
2022-08-02T23:06:24.326Z,25.62
2022-08-02T23:08:52.130Z,25.36
2022-08-02T23:11:19.887Z,25.44
2022-08-02T23:13:47.687Z,25.25
2022-08-02T23:16:36.841Z,25.31
2022-08-02T23:19:21.760Z,24.76
2022-08-02T23:22:02.376Z,24.32
2022-08-02T23:24:33.799Z,24.38
2022-08-02T23:27:06.685Z,24.15
2022-08-02T23:29:37.091Z,23.73
2022-08-02T23:32:05.619Z,23.75
2022-08-02T23:34:34.479Z,24.02
2022-08-02T23:37:04.931Z,23.75
2022-08-02T23:39:32.961Z,24.11
2022-08-02T23:42:00.732Z,23.94
2022-08-02T23:44:28.962Z,24.15
2022-08-02T23:47:00.397Z,23.76
2022-08-02T23:49:29.372Z,23.94
2022-08-02T23:52:01.486Z,23.40
2022-08-02T23:54:31.348Z,23.22
2022-08-02T23:56:59.302Z,23.13
2022-08-02T23:59:27.025Z,21.91
